^^

Forecast Yr.no

English only

  Yr.no V2


NEW! Browse more than 3 million forecasts in 240 countries.
How-to: Choose country in dropdown, then write few first letters of the place in the box and the search suggests hits.



Forecast for Petit Raffray, Mauritius

Last update: 13.08.2020 08:49
Next update: 13.08.2020 15:01
Latitude: 20.03° S
Longitude: 57.62° E
Altitude: 43 m

hPa
mm °C
    Temperature Precipitation Pressure Wind Humidity Clouds Fog
 06:32     17:56 Today
16:00   1017.0 hPa 26 km/h 51% 10%
17:00   1017.4 hPa 25 km/h 56% 13%
18:00   1018.0 hPa 23 km/h 61% 6%
19:00   1018.6 hPa 21 km/h 62% 8%
20:00   1019.2 hPa 20 km/h 63% 26%
21:00   1019.4 hPa 19 km/h 64% 21%
22:00   1019.4 hPa 17 km/h 64% 14%
23:00   1019.4 hPa 15 km/h 67% 14%
 06:31     17:56 Tomorrow
00:00   1019.4 hPa 14 km/h 73% 16%
01:00   1019.2 hPa 15 km/h 80% 63%
02:00   1018.6 hPa 15 km/h 81% 95%
03:00   1018.2 hPa 16 km/h 81% 45%
04:00   1017.8 hPa 17 km/h 81% 23%
05:00   1017.5 hPa 18 km/h 82% 27%
06:00   1017.8 hPa 18 km/h 83% 22%
07:00   1018.4 hPa 16 km/h 82% 44%
08:00   1018.8 hPa 19 km/h 72% 18%
09:00   1019.0 hPa 20 km/h 65% 27%
10:00   1019.1 hPa 19 km/h 60% 38%
11:00   1018.8 hPa 18 km/h 56% 39%
12:00   1018.0 hPa 17 km/h 54% 55%
13:00   1017.2 hPa 18 km/h 53% 63%
14:00   1016.5 hPa 19 km/h 54% 81%
15:00   1016.4 hPa 16 km/h 57% 98%
16:00 0.2 mm 1016.8 hPa 12 km/h 63% 100%
17:00 0.3 mm 1017.2 hPa 8 km/h 68% 97%
18:00 0.4 mm 1017.7 hPa 3 km/h 70% 100%
19:00 1.0 mm 1018.2 hPa 5 km/h 74% 100%
20:00 1.1 mm 1018.9 hPa 3 km/h 78% 100%
21:00 0.8 mm 1019.1 hPa 6 km/h 80% 88%
22:00 0.2 mm 1019.2 hPa 4 km/h 86% 34%
23:00   1019.2 hPa 5 km/h 88% 13%
 06:30     17:56 Saturday 15.08.2020
00:00   1019.1 hPa 10 km/h 87% 11%
01:00   1018.7 hPa 12 km/h 86% 7%
02:00   1018.3 hPa 13 km/h 86% 5%
03:00   1017.9 hPa 14 km/h 87% 4%
04:00   1017.9 hPa 15 km/h 87% 3%
05:00   1017.9 hPa 17 km/h 87% 3%
06:00   1018.3 hPa 19 km/h 86% 9%
07:00   1019.1 hPa 21 km/h 85% 15%
08:00   1019.6 hPa 25 km/h 79% 16%
09:00   1020.1 hPa 27 km/h 67% 13%
10:00   1020.2 hPa 28 km/h 61% 38%
11:00   1019.7 hPa 28 km/h 59% 72%
12:00   1019.1 hPa 30 km/h 57% 73%
13:00   1018.6 hPa 31 km/h 57% 72%
14:00   1018.2 hPa 31 km/h 58% 69%
15:00   1018.1 hPa 32 km/h 59% 64%
16:00   1018.4 hPa 31 km/h 61% 61%
17:00   1018.9 hPa 30 km/h 68% 28%
18:00   1019.4 hPa 27 km/h 73% 23%
19:00   1019.8 hPa 26 km/h 77% 20%
20:00   1020.4 hPa 26 km/h 79% 24%
21:00   1020.7 hPa 26 km/h 78% 25%
22:00   1020.9 hPa 25 km/h 80% 27%
23:00   1020.8 hPa 24 km/h 84% 30%
 06:30     17:57 Sunday 16.08.2020
00:00   1020.8 hPa 25 km/h 86% 42%
01:00 0.1 mm 1020.7 hPa 24 km/h 87% 70%
02:00 0.1 mm 1020.3 hPa 23 km/h 87% 58%
03:00 0.2 mm 1020.0 hPa 23 km/h 89% 85%
04:00 0.2 mm 1019.7 hPa 23 km/h 91% 70%
10:00 0.6 mm 1021.6 hPa 31 km/h 67% 25%
16:00   1018.7 hPa 33 km/h 65% 59%
22:00 0.1 mm 1021.0 hPa 26 km/h 78% 23%
 06:29     17:57 Monday 17.08.2020
04:00 0.3 mm 1019.4 hPa 27 km/h 83% 93%
10:00 0.9 mm 1021.1 hPa 32 km/h 68% 80%
16:00 0.1 mm 1017.8 hPa 28 km/h 58% 22%
22:00   1020.8 hPa 22 km/h 82% 16%
 06:28     17:57 Tuesday 18.08.2020
04:00 0.1 mm 1019.3 hPa 19 km/h 86% 23%
10:00 0.1 mm 1020.9 hPa 32 km/h 67% 52%
16:00 2.0 mm 1017.8 hPa 30 km/h 78% 55%
22:00 0.4 mm 1019.5 hPa 25 km/h 79% 34%
 06:27     17:58 Wednesday 19.08.2020
04:00 0.1 mm 1018.2 hPa 15 km/h 81% 35%
10:00   1019.6 hPa 20 km/h 65% 2%
16:00   1016.1 hPa 22 km/h 65% 12%
22:00   1018.2 hPa 13 km/h 89% 6%
 06:27     17:58 Thursday 20.08.2020
04:00 0.1 mm 1017.4 hPa 11 km/h 94% 41%
10:00 0.2 mm 1019.2 hPa 10 km/h 68% 48%
16:00 0.9 mm 1016.6 hPa 10 km/h 63% 73%
22:00 0.2 mm 1019.7 hPa 16 km/h 88% 89%
 06:26     17:58 Friday 21.08.2020
04:00   1019.1 hPa 16 km/h 90% 44%
10:00 0.1 mm 1021.2 hPa 23 km/h 65% 13%
16:00   1018.5 hPa 26 km/h 59% 6%
22:00 0.1 mm 1021.5 hPa 22 km/h 83% 42%
 06:25     17:58 Saturday 22.08.2020
04:00 0.1 mm 1020.4 hPa 19 km/h 82% 23%
10:00   1022.1 hPa 30 km/h 58% 72%
16:00   1019.0 hPa 31 km/h 57% 46%
22:00 0.1 mm 1021.2 hPa 23 km/h 65% 49%